Terminal Aerodrome Forecast
Issued by NWS

Home | Current Version | Previous Version | Text Only | Print | Product List | Glossary On
Versions: 1 2 3 4 5 6 7 8 9 10 11 12 13 14 15 16 17 18 19 20 21
000
FTUS46 KLOX 032300 RRA
TAFSBP
TAF
KSBP 032350Z 0400/0424 29010KT P6SM SKC
     FM040500 31006KT P6SM BKN015
     FM041000 VRB03KT 6SM BR BKN007 OVC015
     FM041500 27005KT P6SM BKN020
     FM041900 28008KT P6SM SCT020
     FM042100 29010KT P6SM SKC=

USA.gov is the U.S. government's official web portal to all federal, state and local government web resources and services.